Time;durP1;ratioP1;P1;durP2;ratioP2;P2;SDS_P1;SDS_P2;PMS_P1;PMS_P2;Temp;Humidity;BMP_temperature;BMP_pressure;BME280_temperature;BME280_humidity;BME280_pressure;Samples;Min_cycle;Max_cycle;Signal;HPM_P1;HPM_P2
2024/02/09 00:00:40;;;;;;;13.03;3.37;;;11.50;99.90;;;;;;5041045;28;20463;-67
2024/02/09 00:03:11;;;;;;;16.90;4.00;;;11.40;99.90;;;;;;5050089;28;20443;-68
2024/02/09 00:05:39;;;;;;;16.43;4.20;;;11.30;99.90;;;;;;5041605;28;20534;-67
2024/02/09 00:08:13;;;;;;;13.27;4.17;;;11.30;99.90;;;;;;5041618;28;21057;-67
2024/02/09 00:10:46;;;;;;;16.40;6.40;;;11.20;99.90;;;;;;5048362;28;20451;-67
2024/02/09 00:13:14;;;;;;;13.00;3.90;;;11.20;99.90;;;;;;5041159;28;20517;-67
2024/02/09 00:15:45;;;;;;;14.40;4.50;;;11.10;99.90;;;;;;5041351;28;20886;-67
2024/02/09 00:18:15;;;;;;;14.40;4.77;;;11.10;99.90;;;;;;5043294;28;20460;-68
2024/02/09 00:20:47;;;;;;;13.73;4.13;;;11.10;99.90;;;;;;5039319;28;20449;-67
2024/02/09 00:23:16;;;;;;;14.40;3.90;;;11.20;99.90;;;;;;5040902;28;20511;-68
2024/02/09 00:25:48;;;;;;;13.27;3.30;;;11.10;99.90;;;;;;5038580;28;20460;-69
2024/02/09 00:28:16;;;;;;;16.77;4.90;;;11.10;99.90;;;;;;5046286;28;20895;-68
2024/02/09 00:30:45;;;;;;;14.73;3.93;;;11.00;99.90;;;;;;5043467;28;20825;-68
2024/02/09 00:33:15;;;;;;;14.53;3.60;;;11.00;99.90;;;;;;5038465;28;20502;-68
2024/02/09 00:35:43;;;;;;;15.17;4.73;;;11.00;99.90;;;;;;5042071;28;20459;-68
2024/02/09 00:38:20;;;;;;;14.37;3.57;;;11.00;99.90;;;;;;5043010;28;20444;-68
2024/02/09 00:40:51;;;;;;;19.70;4.03;;;11.10;99.90;;;;;;5048623;28;20471;-67
2024/02/09 00:43:22;;;;;;;13.33;3.30;;;11.00;99.90;;;;;;5043515;28;21167;-68
2024/02/09 00:45:52;;;;;;;15.13;3.53;;;11.00;99.90;;;;;;5044828;28;20446;-73
2024/02/09 00:48:23;;;;;;;14.27;4.53;;;10.90;99.90;;;;;;5043621;28;20458;-68
2024/02/09 00:50:51;;;;;;;15.67;5.20;;;10.90;99.90;;;;;;5043412;28;20546;-68
2024/02/09 00:53:20;;;;;;;13.83;3.90;;;10.90;99.90;;;;;;5042619;28;20510;-66
2024/02/09 00:55:48;;;;;;;14.00;3.53;;;10.80;99.90;;;;;;5044122;28;20545;-67
2024/02/09 00:58:18;;;;;;;13.10;2.60;;;10.90;99.90;;;;;;5043427;28;20446;-67
2024/02/09 01:00:46;;;;;;;17.13;4.20;;;10.90;99.90;;;;;;5042628;28;20544;-67
2024/02/09 01:03:15;;;;;;;13.47;3.30;;;10.90;99.90;;;;;;5052646;28;20447;-67
2024/02/09 01:05:46;;;;;;;12.67;3.17;;;11.00;99.90;;;;;;5061603;28;20452;-66
2024/02/09 01:08:15;;;;;;;14.30;5.27;;;10.90;99.90;;;;;;5061404;28;20442;-67
2024/02/09 01:10:43;;;;;;;15.60;3.90;;;10.90;99.90;;;;;;5066197;28;20962;-66
2024/02/09 02:46:41;;;;;;;19.57;5.23;;;9.50;99.90;;;;;;5065995;28;20448;-68
2024/02/09 03:05:41;;;;;;;15.50;5.77;;;9.50;99.90;;;;;;5066082;28;20911;-67
2024/02/09 03:08:10;;;;;;;14.27;3.90;;;9.50;99.90;;;;;;5066139;28;20450;-66
2024/02/09 03:10:57;;;;;;;11.97;3.70;;;9.50;99.90;;;;;;5063719;28;20446;-67
2024/02/09 03:13:25;;;;;;;13.97;3.77;;;9.50;99.90;;;;;;5060485;28;20450;-67
2024/02/09 03:15:54;;;;;;;12.50;3.57;;;9.60;99.90;;;;;;5065536;28;20446;-67
2024/02/09 03:18:25;;;;;;;11.90;3.53;;;9.60;99.90;;;;;;5057697;28;20983;-67
2024/02/09 03:20:55;;;;;;;15.13;3.90;;;9.50;99.90;;;;;;5064120;28;20459;-67
2024/02/09 03:23:23;;;;;;;13.00;3.70;;;9.50;99.90;;;;;;5057523;28;20929;-67
2024/02/09 03:25:52;;;;;;;8.53;2.33;;;9.50;99.90;;;;;;5061948;28;20878;-67
2024/02/09 03:28:20;;;;;;;13.83;3.87;;;9.60;99.90;;;;;;5065475;28;20444;-67
2024/02/09 03:30:47;;;;;;;14.43;3.03;;;9.60;99.90;;;;;;5065831;28;20446;-67
2024/02/09 03:33:17;;;;;;;10.20;2.70;;;9.60;99.90;;;;;;5065321;28;20446;-67
2024/02/09 03:35:45;;;;;;;11.53;3.00;;;9.60;99.90;;;;;;5066239;28;20490;-67
2024/02/09 03:38:13;;;;;;;14.03;3.87;;;9.60;99.90;;;;;;5066755;28;20914;-67
2024/02/09 03:40:42;;;;;;;12.40;2.77;;;9.60;99.90;;;;;;5066144;28;20489;-67
2024/02/09 03:43:12;;;;;;;16.70;3.37;;;9.60;99.90;;;;;;5066751;28;20978;-66
2024/02/09 03:45:41;;;;;;;10.50;2.80;;;9.70;99.90;;;;;;5065274;28;20493;-67
2024/02/09 03:48:10;;;;;;;9.10;1.90;;;9.70;99.90;;;;;;5064456;28;20511;-67
2024/02/09 03:50:41;;;;;;;13.17;3.03;;;9.70;99.90;;;;;;5065822;28;20870;-66
2024/02/09 03:53:12;;;;;;;13.40;2.27;;;9.70;99.90;;;;;;5064389;28;20449;-66
2024/02/09 03:55:47;;;;;;;8.53;2.03;;;9.80;99.90;;;;;;5060187;28;20485;-67
2024/02/09 03:58:17;;;;;;;11.97;3.43;;;9.80;99.90;;;;;;5065893;28;20515;-67
2024/02/09 04:00:45;;;;;;;10.70;2.43;;;9.80;99.90;;;;;;5064486;28;21055;-67
2024/02/09 04:03:15;;;;;;;11.07;2.77;;;9.70;99.90;;;;;;5064055;28;20940;-67
2024/02/09 04:05:52;;;;;;;11.60;3.33;;;9.70;99.90;;;;;;5064750;28;21018;-67
2024/02/09 04:08:20;;;;;;;10.80;2.90;;;9.70;99.90;;;;;;5065384;28;20476;-67
2024/02/09 04:10:48;;;;;;;10.70;2.70;;;9.70;99.90;;;;;;5068485;28;20499;-67
2024/02/09 04:13:16;;;;;;;13.20;2.70;;;9.70;99.90;;;;;;5068912;28;20456;-67
2024/02/09 04:15:44;;;;;;;14.63;3.17;;;9.80;99.90;;;;;;5068621;28;20988;-67
2024/02/09 04:18:12;;;;;;;11.30;3.07;;;9.70;99.90;;;;;;5068947;28;20454;-67
2024/02/09 04:20:41;;;;;;;11.07;3.30;;;9.70;99.90;;;;;;5066486;28;20535;-67
2024/02/09 04:23:14;;;;;;;11.00;2.93;;;9.70;99.90;;;;;;5069144;28;21146;-67
2024/02/09 04:25:43;;;;;;;12.50;3.00;;;9.70;99.90;;;;;;5068295;28;20453;-66
2024/02/09 04:28:12;;;;;;;15.00;3.47;;;9.70;99.90;;;;;;5069470;28;20501;-67
2024/02/09 04:30:46;;;;;;;12.40;3.10;;;9.70;99.90;;;;;;5068639;28;20541;-66
2024/02/09 04:33:15;;;;;;;18.17;5.10;;;9.70;99.90;;;;;;5068882;28;20446;-67
2024/02/09 04:35:44;;;;;;;18.60;4.23;;;9.70;99.90;;;;;;5068289;28;20799;-66
2024/02/09 04:38:15;;;;;;;14.70;4.40;;;9.70;99.90;;;;;;5063079;28;20454;-67
2024/02/09 04:40:43;;;;;;;13.13;4.27;;;9.80;99.90;;;;;;5061098;28;20449;-66
2024/02/09 04:43:11;;;;;;;13.43;3.77;;;9.70;99.90;;;;;;5068567;28;20469;-67
2024/02/09 04:45:39;;;;;;;16.33;3.30;;;9.70;99.90;;;;;;5062516;28;20476;-67
2024/02/09 04:48:08;;;;;;;9.40;3.03;;;9.80;99.90;;;;;;5068308;28;20562;-66
2024/02/09 04:50:36;;;;;;;18.67;3.70;;;9.70;99.90;;;;;;5062176;28;20447;-68
2024/02/09 04:53:04;;;;;;;13.07;4.20;;;9.70;99.90;;;;;;5065062;28;20467;-67
2024/02/09 04:55:34;;;;;;;12.30;3.20;;;9.80;99.90;;;;;;5068075;28;20489;-67
2024/02/09 04:58:03;;;;;;;11.50;3.20;;;9.80;99.90;;;;;;5068942;28;20456;-67
2024/02/09 05:00:33;;;;;;;10.50;2.33;;;9.80;99.90;;;;;;5068259;28;20456;-65
2024/02/09 05:03:03;;;;;;;9.33;2.73;;;9.80;99.90;;;;;;5068487;28;20469;-67
2024/02/09 05:05:32;;;;;;;9.70;2.60;;;9.90;99.90;;;;;;5068937;28;20439;-67
2024/02/09 05:08:02;;;;;;;15.77;3.20;;;9.80;99.90;;;;;;5065071;28;20450;-68
2024/02/09 05:10:30;;;;;;;10.27;3.20;;;9.90;99.90;;;;;;5068828;28;20455;-68
2024/02/09 05:13:02;;;;;;;10.73;2.90;;;9.90;99.90;;;;;;5069087;28;20482;-68
2024/02/09 05:15:31;;;;;;;11.30;2.50;;;9.90;99.90;;;;;;5054265;28;20489;-68
2024/02/09 05:17:59;;;;;;;10.40;2.57;;;9.90;99.90;;;;;;5069535;28;20447;-67
2024/02/09 05:20:27;;;;;;;8.50;2.30;;;10.00;99.90;;;;;;5068558;28;20505;-67
2024/02/09 05:22:57;;;;;;;10.13;3.03;;;10.00;99.90;;;;;;5068255;28;20471;-67
2024/02/09 05:25:25;;;;;;;10.63;2.73;;;10.00;99.90;;;;;;5068416;28;20451;-67
2024/02/09 05:27:53;;;;;;;10.33;2.20;;;9.90;99.90;;;;;;5068024;28;20545;-67
2024/02/09 05:30:23;;;;;;;8.60;2.23;;;9.90;99.90;;;;;;5063445;28;20476;-67
2024/02/09 05:32:51;;;;;;;8.93;2.17;;;9.90;99.90;;;;;;5067770;28;20841;-67
2024/02/09 05:35:20;;;;;;;10.00;2.53;;;10.00;99.90;;;;;;5067253;28;20917;-67
2024/02/09 05:37:54;;;;;;;8.70;2.13;;;10.00;99.90;;;;;;5067213;28;20453;-67
2024/02/09 05:40:22;;;;;;;10.10;2.13;;;10.00;99.90;;;;;;5067151;28;20441;-67
2024/02/09 05:42:53;;;;;;;10.30;2.20;;;10.00;99.90;;;;;;5066534;28;20474;-66
2024/02/09 05:45:22;;;;;;;7.53;1.73;;;10.10;99.90;;;;;;5067244;28;20537;-66
2024/02/09 05:47:53;;;;;;;8.50;2.00;;;10.10;99.90;;;;;;5067105;28;20543;-66
2024/02/09 05:50:21;;;;;;;8.40;1.50;;;10.10;99.90;;;;;;5067619;28;20452;-67
2024/02/09 05:53:00;;;;;;;9.70;1.80;;;10.20;99.90;;;;;;5064227;28;21275;-67
2024/02/09 05:55:28;;;;;;;8.00;2.10;;;10.20;99.90;;;;;;5060757;28;20499;-67
2024/02/09 05:57:56;;;;;;;8.37;1.60;;;10.30;99.90;;;;;;5059755;28;20455;-68
2024/02/09 06:00:25;;;;;;;9.13;1.87;;;10.30;99.90;;;;;;5061166;28;20445;-68
2024/02/09 06:02:55;;;;;;;7.07;1.37;;;10.30;99.90;;;;;;5058968;28;20902;-67
2024/02/09 06:05:23;;;;;;;7.10;1.43;;;10.40;99.90;;;;;;5061090;28;20442;-67
2024/02/09 06:07:51;;;;;;;7.60;1.33;;;10.50;99.90;;;;;;5067688;28;20454;-67
2024/02/09 06:10:19;;;;;;;7.60;1.30;;;10.60;99.90;;;;;;5066509;28;20446;-68
2024/02/09 06:12:47;;;;;;;8.27;1.40;;;10.70;99.90;;;;;;5057804;28;20559;-67
2024/02/09 06:15:15;;;;;;;9.37;1.70;;;10.80;99.90;;;;;;5059300;28;20454;-68
2024/02/09 06:17:45;;;;;;;6.73;0.93;;;10.80;99.90;;;;;;5059448;28;20443;-68
2024/02/09 06:20:22;;;;;;;6.90;1.03;;;10.80;99.90;;;;;;5065672;28;20504;-68
2024/02/09 06:22:50;;;;;;;7.00;1.20;;;10.90;99.90;;;;;;5066615;28;20465;-67
2024/02/09 06:25:18;;;;;;;7.57;1.67;;;10.90;99.90;;;;;;5066455;28;21007;-68
2024/02/09 06:27:47;;;;;;;7.50;1.60;;;10.90;99.90;;;;;;5066515;28;20509;-68
2024/02/09 06:30:17;;;;;;;7.60;1.43;;;10.90;99.90;;;;;;5066886;28;20694;-68
2024/02/09 06:32:46;;;;;;;7.13;1.40;;;10.90;99.90;;;;;;5065911;28;20489;-68
2024/02/09 06:35:15;;;;;;;6.87;1.27;;;10.90;99.90;;;;;;5066686;28;20443;-69
2024/02/09 06:37:43;;;;;;;8.07;1.20;;;11.00;99.90;;;;;;5067435;28;20443;-69
2024/02/09 06:40:13;;;;;;;8.00;1.33;;;11.00;99.90;;;;;;5066833;28;20481;-68
2024/02/09 06:42:43;;;;;;;7.23;1.17;;;11.10;99.90;;;;;;5066619;28;20556;-68
2024/02/09 06:45:14;;;;;;;6.87;1.20;;;11.00;99.90;;;;;;5064748;28;20444;-68
2024/02/09 06:47:42;;;;;;;7.13;1.30;;;11.10;99.90;;;;;;5066918;28;20497;-69
2024/02/09 06:50:12;;;;;;;6.60;0.80;;;11.20;99.90;;;;;;5066159;28;20447;-68
2024/02/09 06:52:41;;;;;;;7.67;0.90;;;11.30;99.90;;;;;;5063550;28;21191;-69
2024/02/09 06:55:11;;;;;;;7.63;1.00;;;11.30;99.90;;;;;;5065785;28;20447;-69
2024/02/09 06:57:44;;;;;;;6.97;1.10;;;11.30;99.90;;;;;;5067385;28;20482;-70
2024/02/09 07:00:14;;;;;;;6.57;0.80;;;11.20;99.90;;;;;;5066682;28;20505;-69
2024/02/09 07:02:43;;;;;;;6.23;0.70;;;11.20;99.90;;;;;;5066438;28;20464;-68
2024/02/09 07:05:14;;;;;;;6.70;1.30;;;11.30;99.90;;;;;;5065415;28;20539;-68
2024/02/09 07:07:43;;;;;;;6.10;0.70;;;11.30;99.90;;;;;;5066719;28;20435;-69
2024/02/09 07:10:13;;;;;;;7.93;2.23;;;11.30;99.90;;;;;;5065797;28;20460;-69
2024/02/09 07:12:41;;;;;;;8.40;1.27;;;11.30;99.90;;;;;;5061892;28;20463;-68
2024/02/09 07:15:10;;;;;;;7.53;1.20;;;11.40;99.90;;;;;;5065561;28;20450;-69
2024/02/09 07:17:38;;;;;;;7.40;0.90;;;11.30;99.90;;;;;;5064497;28;20483;-69
2024/02/09 07:20:14;;;;;;;6.60;0.90;;;11.30;99.90;;;;;;5058836;28;20477;-68
2024/02/09 07:22:43;;;;;;;6.37;1.10;;;11.20;99.90;;;;;;5064940;28;20461;-69
2024/02/09 07:25:14;;;;;;;6.30;0.97;;;11.20;99.90;;;;;;5063373;28;20882;-69
2024/02/09 07:27:42;;;;;;;7.20;1.30;;;11.10;99.90;;;;;;5062094;28;20455;-68
2024/02/09 07:30:12;;;;;;;7.77;1.20;;;11.10;99.90;;;;;;5063004;28;20530;-68
2024/02/09 07:32:43;;;;;;;6.73;1.00;;;11.00;99.90;;;;;;5065990;28;20826;-68
2024/02/09 07:35:13;;;;;;;7.00;0.90;;;11.10;99.90;;;;;;5058536;28;21185;-69
2024/02/09 07:37:44;;;;;;;6.87;1.20;;;11.10;99.90;;;;;;5065736;28;20483;-68
2024/02/09 07:40:16;;;;;;;9.60;0.90;;;11.10;99.90;;;;;;5065407;28;20443;-69
2024/02/09 07:42:47;;;;;;;7.60;1.20;;;11.20;99.90;;;;;;5066134;28;20467;-69
2024/02/09 07:45:16;;;;;;;6.60;0.90;;;11.20;99.90;;;;;;5069445;28;20454;-69
2024/02/09 07:47:45;;;;;;;8.13;1.60;;;11.20;99.90;;;;;;5070048;28;20454;-69
2024/02/09 07:50:15;;;;;;;6.80;1.17;;;11.20;99.90;;;;;;5065540;28;20449;-68
2024/02/09 07:52:43;;;;;;;8.00;1.20;;;11.20;99.90;;;;;;5068222;28;20469;-69
2024/02/09 07:55:13;;;;;;;6.50;0.90;;;11.20;99.90;;;;;;5070264;28;20538;-68
2024/02/09 07:57:43;;;;;;;6.70;0.90;;;11.30;99.90;;;;;;5070855;28;20483;-68
2024/02/09 08:00:17;;;;;;;7.53;1.00;;;11.30;99.90;;;;;;5070642;28;20449;-69
2024/02/09 08:02:45;;;;;;;6.67;1.10;;;11.30;99.90;;;;;;5063199;28;20871;-68
2024/02/09 08:05:18;;;;;;;7.80;1.30;;;11.30;99.90;;;;;;5067768;28;20924;-69
2024/02/09 08:07:47;;;;;;;8.57;1.43;;;11.30;99.90;;;;;;5070705;28;20440;-69
2024/02/09 08:10:16;;;;;;;6.90;1.10;;;11.40;99.90;;;;;;5068603;28;20508;-69
2024/02/09 08:12:45;;;;;;;7.40;1.33;;;11.50;99.90;;;;;;5068588;28;20856;-68
2024/02/09 08:15:13;;;;;;;6.70;1.10;;;11.60;99.90;;;;;;5068881;28;20457;-69
2024/02/09 08:17:45;;;;;;;7.20;1.20;;;11.70;99.90;;;;;;5069275;28;20535;-69
2024/02/09 08:20:19;;;;;;;6.60;1.03;;;11.80;99.90;;;;;;5068582;28;20449;-68
2024/02/09 08:22:47;;;;;;;6.40;0.97;;;11.90;99.90;;;;;;5068855;28;20519;-69
2024/02/09 08:25:15;;;;;;;8.00;1.20;;;12.00;99.90;;;;;;5066500;28;20529;-69
2024/02/09 08:27:43;;;;;;;7.30;1.10;;;12.00;99.90;;;;;;5068027;28;20449;-68
2024/02/09 08:30:12;;;;;;;7.90;1.20;;;12.20;99.90;;;;;;5068788;28;20451;-67
2024/02/09 08:32:41;;;;;;;9.67;1.20;;;12.20;99.90;;;;;;5068653;28;20500;-69
2024/02/09 08:35:10;;;;;;;6.90;1.10;;;12.20;99.90;;;;;;5063259;28;20537;-68
2024/02/09 08:37:39;;;;;;;7.17;1.20;;;12.30;99.90;;;;;;5059240;28;21009;-67
2024/02/09 08:40:09;;;;;;;7.70;1.00;;;12.30;99.90;;;;;;5068188;28;20855;-67
2024/02/09 08:42:37;;;;;;;8.73;1.67;;;12.40;99.90;;;;;;5032698;28;20458;-67
2024/02/09 08:45:05;;;;;;;8.40;1.10;;;12.40;99.90;;;;;;5068795;28;20993;-67
2024/02/09 08:47:34;;;;;;;7.10;1.30;;;12.60;99.90;;;;;;5069017;28;20439;-67
2024/02/09 08:50:02;;;;;;;8.47;1.07;;;12.80;99.90;;;;;;5063902;28;20443;-68
2024/02/09 08:52:31;;;;;;;6.60;0.90;;;12.90;99.90;;;;;;5060950;28;21020;-67
2024/02/09 08:55:01;;;;;;;7.23;1.00;;;13.00;99.90;;;;;;5067433;28;20454;-67
2024/02/09 08:57:29;;;;;;;7.40;1.30;;;13.00;99.90;;;;;;5068302;28;20562;-72
2024/02/09 08:59:57;;;;;;;7.70;1.47;;;13.10;99.90;;;;;;5056077;28;20478;-68
2024/02/09 09:02:25;;;;;;;7.60;1.03;;;13.30;99.90;;;;;;5047582;28;20469;-69
2024/02/09 09:04:54;;;;;;;6.30;0.90;;;13.40;99.90;;;;;;5063360;28;20444;-68
2024/02/09 09:07:22;;;;;;;8.43;1.33;;;13.50;99.90;;;;;;5066733;28;20504;-68
2024/02/09 09:09:50;;;;;;;7.53;1.23;;;13.50;99.90;;;;;;5067156;28;20449;-68
2024/02/09 09:12:21;;;;;;;7.23;1.40;;;13.60;99.90;;;;;;5066030;28;20477;-68
2024/02/09 09:14:48;;;;;;;7.07;1.20;;;13.60;99.90;;;;;;5066296;28;20446;-68
2024/02/09 09:17:16;;;;;;;7.37;1.43;;;13.80;99.90;;;;;;5066936;28;20768;-68
2024/02/09 09:19:53;;;;;;;6.60;1.30;;;13.90;99.90;;;;;;5066635;28;21290;-69
2024/02/09 09:22:21;;;;;;;8.33;1.70;;;14.20;99.90;;;;;;5065373;28;20475;-68
2024/02/09 09:24:49;;;;;;;8.00;1.30;;;14.30;99.90;;;;;;5066572;28;20968;-68
2024/02/09 09:27:18;;;;;;;7.20;1.50;;;14.30;99.90;;;;;;5065284;28;20450;-68
2024/02/09 09:29:46;;;;;;;7.00;1.03;;;14.50;99.90;;;;;;5067564;28;20700;-68
2024/02/09 09:32:19;;;;;;;7.63;1.40;;;14.60;99.90;;;;;;5066130;28;20488;-68
2024/02/09 09:34:48;;;;;;;8.60;1.23;;;14.80;99.90;;;;;;5066758;28;20786;-68
2024/02/09 09:37:16;;;;;;;7.50;1.10;;;14.70;99.90;;;;;;5066197;28;20481;-68
2024/02/09 09:39:44;;;;;;;6.80;1.20;;;14.80;99.90;;;;;;5067151;28;20486;-68
2024/02/09 09:42:12;;;;;;;7.43;1.40;;;15.00;99.90;;;;;;5065606;28;20518;-68
2024/02/09 09:44:43;;;;;;;10.33;1.50;;;14.90;99.90;;;;;;5066187;28;20500;-67
2024/02/09 09:47:13;;;;;;;6.60;1.10;;;14.70;99.90;;;;;;5066496;28;20562;-67
2024/02/09 09:49:44;;;;;;;7.93;1.47;;;14.70;99.90;;;;;;5059738;28;20450;-68
2024/02/09 09:52:20;;;;;;;7.47;1.27;;;14.70;99.90;;;;;;5062859;28;21394;-68
2024/02/09 09:54:49;;;;;;;9.20;1.20;;;14.70;99.90;;;;;;5050444;28;20507;-67
2024/02/09 09:57:17;;;;;;;6.80;1.10;;;14.70;99.90;;;;;;5051550;28;20516;-69
2024/02/09 09:59:47;;;;;;;8.80;1.87;;;14.80;99.90;;;;;;5052614;28;20629;-68
2024/02/09 10:02:15;;;;;;;8.73;1.50;;;14.80;99.90;;;;;;5059208;28;20488;-68
2024/02/09 10:04:43;;;;;;;7.80;1.23;;;14.70;99.90;;;;;;5060357;28;20461;-70
2024/02/09 10:07:15;;;;;;;7.50;1.43;;;14.70;99.90;;;;;;5064795;28;20476;-67
2024/02/09 10:09:43;;;;;;;8.70;1.70;;;14.70;99.90;;;;;;5064840;28;20852;-68
2024/02/09 10:12:12;;;;;;;7.07;1.30;;;14.80;99.90;;;;;;5065806;28;20505;-69
2024/02/09 10:14:41;;;;;;;6.70;1.10;;;14.80;99.90;;;;;;5063222;28;20441;-68
2024/02/09 10:17:12;;;;;;;7.90;1.00;;;14.90;99.90;;;;;;5066768;28;20487;-67
2024/02/09 10:19:41;;;;;;;8.70;1.53;;;15.10;99.90;;;;;;5059047;28;20850;-68
2024/02/09 10:22:09;;;;;;;7.30;1.87;;;15.20;99.90;;;;;;5065585;28;20542;-67
2024/02/09 10:24:50;;;;;;;8.37;1.40;;;15.20;99.90;;;;;;5066322;28;20437;-69
2024/02/09 10:27:18;;;;;;;7.73;1.30;;;15.10;99.90;;;;;;5066128;28;20489;-68
2024/02/09 10:29:46;;;;;;;7.67;1.43;;;15.20;99.90;;;;;;5066818;28;20440;-68
2024/02/09 10:32:15;;;;;;;7.40;1.30;;;15.20;99.90;;;;;;5061783;28;21037;-67
2024/02/09 10:34:44;;;;;;;7.80;1.20;;;15.10;99.90;;;;;;5065800;28;20531;-68
2024/02/09 10:37:12;;;;;;;8.27;1.67;;;15.00;99.90;;;;;;5065378;28;20910;-69
2024/02/09 10:39:55;;;;;;;7.80;1.23;;;14.90;99.90;;;;;;5065874;28;20444;-67
2024/02/09 10:42:25;;;;;;;6.90;1.20;;;14.90;99.90;;;;;;5046174;28;20471;-68
2024/02/09 10:44:54;;;;;;;7.63;1.30;;;14.70;99.90;;;;;;5045188;28;20942;-69
2024/02/09 10:47:34;;;;;;;7.30;1.33;;;14.70;99.90;;;;;;5045723;28;20443;-68
2024/02/09 10:50:04;;;;;;;6.77;1.30;;;14.80;99.90;;;;;;5047478;28;20474;-68
2024/02/09 10:52:37;;;;;;;9.67;2.33;;;14.80;99.90;;;;;;5051905;28;20491;-69
2024/02/09 10:55:07;;;;;;;9.10;1.23;;;14.80;99.90;;;;;;5060628;28;20883;-70
2024/02/09 10:57:35;;;;;;;9.07;1.70;;;15.00;99.90;;;;;;5062087;28;20440;-68
2024/02/09 11:00:04;;;;;;;8.73;1.53;;;15.10;99.90;;;;;;5060995;28;20477;-69
2024/02/09 11:02:35;;;;;;;8.33;1.43;;;15.10;99.90;;;;;;5063480;28;20462;-70
2024/02/09 11:05:04;;;;;;;7.87;1.10;;;15.10;99.90;;;;;;5065592;28;20445;-68
2024/02/09 11:07:33;;;;;;;10.17;1.60;;;15.10;99.90;;;;;;5056369;28;20476;-70
2024/02/09 11:10:01;;;;;;;8.17;1.37;;;15.10;99.90;;;;;;5065910;28;20453;-68
2024/02/09 11:12:29;;;;;;;8.97;1.63;;;15.10;99.90;;;;;;5067295;28;20486;-69
2024/02/09 11:14:57;;;;;;;7.60;1.13;;;15.00;99.90;;;;;;5056760;28;21235;-69
2024/02/09 11:17:29;;;;;;;7.57;1.40;;;15.10;99.90;;;;;;5059313;28;20613;-69
2024/02/09 11:19:58;;;;;;;8.53;1.60;;;15.10;99.90;;;;;;5064439;28;20488;-69
2024/02/09 11:22:26;;;;;;;8.07;1.43;;;15.20;99.90;;;;;;5055445;28;20540;-69
2024/02/09 11:25:01;;;;;;;7.30;0.93;;;15.10;99.90;;;;;;5057181;28;20552;-67
2024/02/09 11:27:30;;;;;;;7.30;1.50;;;14.90;99.90;;;;;;5063075;28;20473;-69
2024/02/09 11:29:59;;;;;;;9.50;1.33;;;14.90;99.90;;;;;;5064131;28;20539;-68
2024/02/09 11:32:28;;;;;;;7.57;1.10;;;14.90;99.90;;;;;;5062703;28;20470;-69
2024/02/09 11:34:58;;;;;;;9.97;1.60;;;14.90;99.90;;;;;;5065139;28;20458;-69
2024/02/09 11:37:26;;;;;;;11.27;1.50;;;14.90;99.90;;;;;;5058286;28;20440;-69
2024/02/09 11:39:54;;;;;;;8.00;1.30;;;14.90;99.90;;;;;;5056324;28;20484;-68
2024/02/09 11:42:22;;;;;;;6.50;1.17;;;14.90;99.90;;;;;;5057080;28;20475;-68
2024/02/09 11:45:03;;;;;;;7.63;1.60;;;14.90;99.90;;;;;;5057338;28;20449;-68
2024/02/09 11:47:32;;;;;;;6.50;1.27;;;14.90;99.90;;;;;;5062927;28;20496;-68
2024/02/09 11:50:02;;;;;;;8.07;1.27;;;14.80;99.90;;;;;;5054341;28;21000;-68
2024/02/09 11:52:30;;;;;;;7.00;1.03;;;14.70;99.90;;;;;;5061769;28;21213;-68
2024/02/09 11:55:00;;;;;;;8.00;1.60;;;14.60;99.90;;;;;;5063251;28;20436;-68
2024/02/09 11:57:29;;;;;;;7.10;1.20;;;14.70;99.90;;;;;;5053122;28;20444;-68
2024/02/09 11:59:59;;;;;;;8.13;1.70;;;14.60;99.90;;;;;;5043342;28;20480;-68
2024/02/09 12:02:31;;;;;;;7.80;1.30;;;14.60;99.90;;;;;;5055221;28;21003;-68
2024/02/09 12:04:59;;;;;;;7.73;1.20;;;14.60;99.90;;;;;;5063408;28;20447;-66
2024/02/09 12:07:29;;;;;;;8.03;1.50;;;14.60;99.90;;;;;;5063906;28;20435;-66
2024/02/09 12:09:57;;;;;;;7.37;1.33;;;14.60;99.90;;;;;;5061933;28;20437;-67
2024/02/09 12:12:25;;;;;;;8.37;1.33;;;14.60;99.90;;;;;;5062376;28;21350;-67
2024/02/09 12:14:53;;;;;;;6.40;1.10;;;14.50;99.90;;;;;;5063388;28;20892;-66
2024/02/09 12:17:21;;;;;;;7.13;1.37;;;14.50;99.90;;;;;;5061024;28;20440;-67
2024/02/09 12:19:49;;;;;;;6.80;1.00;;;14.50;99.90;;;;;;5063263;28;20488;-66
2024/02/09 12:22:18;;;;;;;9.00;1.67;;;14.40;99.90;;;;;;5059645;28;20473;-69
2024/02/09 12:24:47;;;;;;;8.60;1.40;;;14.40;99.90;;;;;;5061575;28;20528;-68
2024/02/09 12:27:16;;;;;;;7.40;1.00;;;14.40;99.90;;;;;;5062325;28;20521;-68
2024/02/09 12:29:45;;;;;;;6.87;1.27;;;14.40;99.90;;;;;;5065512;28;20444;-68
2024/02/09 12:32:14;;;;;;;8.27;1.80;;;14.40;99.90;;;;;;5074085;28;20462;-69
2024/02/09 12:34:47;;;;;;;7.40;1.30;;;14.40;99.90;;;;;;5075153;28;21046;-67
2024/02/09 12:37:15;;;;;;;7.07;1.20;;;14.30;99.90;;;;;;5064379;28;20528;-71
2024/02/09 12:39:49;;;;;;;7.13;1.50;;;14.10;99.90;;;;;;5051984;28;20575;-70
2024/02/09 12:42:18;;;;;;;7.60;1.43;;;13.90;99.90;;;;;;5059909;28;20466;-76
2024/02/09 12:44:49;;;;;;;7.93;1.90;;;13.70;99.90;;;;;;5065955;28;20867;-72
2024/02/09 12:47:17;;;;;;;9.57;2.87;;;13.60;99.90;;;;;;5067605;28;20451;-71
2024/02/09 12:49:49;;;;;;;11.50;2.80;;;13.50;99.90;;;;;;5066729;28;20463;-69
2024/02/09 12:52:19;;;;;;;10.23;1.83;;;13.40;99.90;;;;;;5063562;28;20470;-68
2024/02/09 12:54:49;;;;;;;8.40;2.17;;;13.30;99.90;;;;;;5060337;28;20443;-69
2024/02/09 12:57:18;;;;;;;9.70;2.80;;;13.30;99.90;;;;;;5059235;28;20930;-68
2024/02/09 12:59:46;;;;;;;10.00;2.70;;;13.20;99.90;;;;;;5067253;28;20988;-68
2024/02/09 13:02:15;;;;;;;9.20;2.07;;;13.20;99.90;;;;;;5065927;28;21146;-67
2024/02/09 13:04:44;;;;;;;8.53;1.93;;;13.20;99.90;;;;;;5066476;28;20443;-67
2024/02/09 13:07:14;;;;;;;8.90;1.90;;;13.10;99.90;;;;;;5066794;28;20496;-68
2024/02/09 13:09:52;;;;;;;8.47;2.23;;;12.90;99.90;;;;;;5066207;28;20443;-67
2024/02/09 13:12:21;;;;;;;10.13;2.10;;;12.70;99.90;;;;;;5064519;28;20454;-69
2024/02/09 13:14:49;;;;;;;9.63;1.60;;;12.60;99.90;;;;;;5063937;28;20526;-68
2024/02/09 13:17:19;;;;;;;8.87;1.50;;;12.50;99.90;;;;;;5066561;28;20450;-65
2024/02/09 13:19:49;;;;;;;9.07;1.80;;;12.40;99.90;;;;;;5066369;28;20490;-67
2024/02/09 13:22:17;;;;;;;8.70;2.10;;;12.30;99.90;;;;;;5062567;28;20465;-66
2024/02/09 13:24:45;;;;;;;8.60;1.50;;;12.20;99.90;;;;;;5063393;28;20446;-66
2024/02/09 13:27:14;;;;;;;7.93;2.17;;;12.10;99.90;;;;;;5048477;28;20465;-69
2024/02/09 13:29:43;;;;;;;7.80;1.80;;;12.20;99.90;;;;;;5048815;28;21007;-68
2024/02/09 13:32:13;;;;;;;7.17;1.50;;;12.20;99.90;;;;;;5066515;28;20471;-68
2024/02/09 13:34:41;;;;;;;8.90;2.00;;;12.20;99.90;;;;;;5058059;28;20446;-69
2024/02/09 13:37:09;;;;;;;8.90;2.07;;;12.30;99.90;;;;;;5066645;28;20905;-68
2024/02/09 13:39:37;;;;;;;9.30;1.80;;;12.20;99.90;;;;;;5066903;28;20486;-68
2024/02/09 13:42:06;;;;;;;7.23;1.67;;;12.20;99.90;;;;;;5065846;28;20470;-69
2024/02/09 13:44:38;;;;;;;9.00;1.80;;;12.10;99.90;;;;;;5066309;28;20543;-70
2024/02/09 13:47:06;;;;;;;8.33;1.67;;;12.10;99.90;;;;;;5064905;28;20511;-68
2024/02/09 13:49:35;;;;;;;8.53;1.80;;;12.20;99.90;;;;;;5065758;28;20893;-68
2024/02/09 13:52:04;;;;;;;12.20;3.97;;;12.20;99.90;;;;;;5063816;28;20467;-68
2024/02/09 13:54:32;;;;;;;8.60;1.93;;;12.20;99.90;;;;;;5059687;28;20967;-68
2024/02/09 13:57:00;;;;;;;8.20;1.80;;;12.30;99.90;;;;;;5066141;28;20474;-67
2024/02/09 13:59:28;;;;;;;7.90;1.53;;;12.40;99.90;;;;;;5065253;28;20443;-67
2024/02/09 14:01:57;;;;;;;9.43;1.90;;;12.50;99.90;;;;;;5065663;28;20490;-68
2024/02/09 14:04:25;;;;;;;7.70;1.80;;;12.60;99.90;;;;;;5065298;28;20442;-67
2024/02/09 14:06:54;;;;;;;10.77;2.80;;;12.60;99.90;;;;;;5072395;28;20439;-69
2024/02/09 14:09:22;;;;;;;7.43;1.87;;;12.60;99.90;;;;;;5066006;28;20447;-68
2024/02/09 14:11:51;;;;;;;8.60;1.53;;;12.50;99.90;;;;;;5063316;28;20463;-67
2024/02/09 14:14:20;;;;;;;8.50;2.00;;;12.50;99.90;;;;;;5067857;28;20470;-68
2024/02/09 14:16:49;;;;;;;9.93;2.80;;;12.50;99.90;;;;;;5073828;28;20439;-66
2024/02/09 14:19:19;;;;;;;7.70;1.90;;;12.50;99.90;;;;;;5071713;28;20438;-68
2024/02/09 14:21:48;;;;;;;7.97;1.80;;;12.50;99.90;;;;;;5071434;28;20462;-68
2024/02/09 14:24:16;;;;;;;7.80;1.83;;;12.50;99.90;;;;;;5061109;28;20436;-66
2024/02/09 14:26:45;;;;;;;9.40;3.37;;;12.50;99.90;;;;;;5069783;28;20533;-67
2024/02/09 14:29:13;;;;;;;8.80;2.87;;;12.40;99.90;;;;;;5073757;28;21203;-67
2024/02/09 14:31:42;;;;;;;10.10;2.67;;;12.40;99.90;;;;;;5065500;28;20462;-67
2024/02/09 14:34:10;;;;;;;7.50;1.87;;;12.40;99.90;;;;;;5060596;28;20458;-66
2024/02/09 14:36:39;;;;;;;8.63;1.90;;;12.40;99.90;;;;;;5073203;28;20480;-67
2024/02/09 14:39:08;;;;;;;7.87;1.80;;;12.40;99.90;;;;;;5066434;28;20511;-67
2024/02/09 14:41:39;;;;;;;10.80;1.90;;;12.40;99.90;;;;;;5072913;28;20502;-68
2024/02/09 14:44:07;;;;;;;7.83;1.40;;;12.50;99.90;;;;;;5072045;28;20436;-67
2024/02/09 14:46:42;;;;;;;9.50;2.17;;;12.40;99.90;;;;;;5067369;28;20471;-68